createdAt,value
2023-01-25T00:00:32.786Z,94.41
2023-01-25T00:01:32.783Z,94.50
2023-01-25T00:02:32.887Z,94.49
2023-01-25T00:03:32.797Z,94.45
2023-01-25T00:04:32.727Z,94.29
2023-01-25T00:05:32.752Z,94.20
2023-01-25T00:06:32.706Z,94.17
2023-01-25T00:07:32.764Z,94.23
2023-01-25T00:08:32.654Z,94.35
2023-01-25T00:09:32.694Z,94.45
2023-01-25T00:10:32.679Z,94.48
2023-01-25T00:11:32.639Z,94.72
2023-01-25T00:12:32.625Z,94.90
2023-01-25T00:13:32.609Z,94.94
2023-01-25T00:14:32.616Z,94.97
2023-01-25T00:15:32.584Z,94.88
2023-01-25T00:16:32.593Z,94.94
2023-01-25T00:17:32.557Z,94.88
2023-01-25T00:18:32.551Z,94.80
2023-01-25T00:19:32.539Z,94.63
2023-01-25T00:20:32.575Z,94.56
2023-01-25T00:21:32.514Z,94.59
2023-01-25T00:22:32.505Z,94.63
2023-01-25T00:23:32.487Z,94.72
2023-01-25T00:24:32.478Z,94.97
2023-01-25T00:25:32.442Z,95.01
2023-01-25T00:26:32.455Z,95.06
2023-01-25T00:27:32.455Z,94.97
2023-01-25T00:28:32.401Z,94.91
2023-01-25T00:29:32.471Z,94.88
2023-01-25T00:30:32.401Z,94.99
2023-01-25T00:31:32.519Z,95.12
2023-01-25T00:32:32.450Z,95.13
2023-01-25T00:33:32.394Z,95.01
2023-01-25T00:34:32.342Z,95.07
2023-01-25T00:35:32.326Z,95.25
2023-01-25T00:36:32.305Z,95.33
2023-01-25T00:37:32.303Z,95.20
2023-01-25T00:38:32.302Z,95.23
2023-01-25T00:39:32.281Z,95.27
2023-01-25T00:40:32.316Z,95.41
2023-01-25T00:41:32.267Z,95.54
2023-01-25T00:42:32.253Z,95.76
2023-01-25T00:43:32.223Z,95.92
2023-01-25T00:44:32.240Z,96.06
2023-01-25T00:45:32.216Z,96.07
2023-01-25T00:46:32.170Z,96.01
2023-01-25T00:47:32.151Z,95.80
2023-01-25T00:48:32.160Z,95.77
2023-01-25T00:49:32.152Z,95.87
2023-01-25T00:50:32.117Z,95.81
2023-01-25T00:51:32.121Z,95.73
2023-01-25T00:52:32.101Z,95.78
2023-01-25T00:53:32.071Z,95.95
2023-01-25T00:54:32.075Z,95.84
2023-01-25T00:55:32.059Z,95.87
2023-01-25T00:56:32.033Z,96.12
2023-01-25T00:57:32.053Z,96.32
2023-01-25T00:58:32.062Z,96.37
2023-01-25T00:59:31.984Z,96.40
2023-01-25T01:00:32.029Z,96.43
2023-01-25T01:01:32.104Z,96.38
2023-01-25T01:02:31.972Z,96.40
2023-01-25T01:03:31.942Z,96.39
2023-01-25T01:04:32.045Z,96.33
2023-01-25T01:05:31.953Z,96.33
2023-01-25T01:06:31.934Z,96.34
2023-01-25T01:07:31.906Z,96.36
2023-01-25T01:08:31.963Z,96.44
2023-01-25T01:09:31.861Z,96.39
2023-01-25T01:10:31.865Z,96.12
2023-01-25T01:11:31.821Z,96.21
2023-01-25T01:12:31.872Z,96.01
2023-01-25T01:13:31.841Z,96.19
2023-01-25T01:14:31.798Z,96.31
2023-01-25T01:15:31.812Z,96.36
2023-01-25T01:16:31.819Z,96.39
2023-01-25T01:17:31.747Z,96.21
2023-01-25T01:18:31.742Z,96.15
2023-01-25T01:19:31.708Z,96.14
2023-01-25T01:20:31.714Z,96.23
2023-01-25T01:21:31.721Z,96.39
2023-01-25T01:22:31.706Z,96.49
2023-01-25T01:23:31.668Z,96.50
2023-01-25T01:24:31.752Z,96.52
2023-01-25T01:25:31.642Z,96.66
2023-01-25T01:26:31.659Z,96.72
2023-01-25T01:27:31.619Z,96.68
2023-01-25T01:28:31.619Z,96.64
2023-01-25T01:29:31.613Z,96.51
2023-01-25T01:30:31.597Z,96.46
2023-01-25T01:31:31.721Z,96.52
2023-01-25T01:32:31.674Z,96.39
2023-01-25T01:33:31.551Z,96.26
2023-01-25T01:34:31.522Z,96.22
2023-01-25T01:35:31.564Z,96.22
2023-01-25T01:36:31.518Z,96.23
2023-01-25T01:37:31.483Z,96.24
2023-01-25T01:38:31.481Z,96.26
2023-01-25T01:39:31.466Z,95.86
2023-01-25T01:40:31.456Z,95.66
2023-01-25T01:41:31.455Z,95.63
2023-01-25T01:42:31.458Z,95.82
2023-01-25T01:43:31.420Z,95.89
2023-01-25T01:44:31.403Z,95.95
2023-01-25T01:45:31.456Z,96.14
2023-01-25T01:46:31.356Z,96.26
2023-01-25T01:47:31.339Z,96.28
2023-01-25T01:48:31.372Z,96.32
2023-01-25T01:49:31.337Z,96.37
2023-01-25T01:50:31.314Z,96.39
2023-01-25T01:51:31.307Z,96.42
2023-01-25T01:52:31.281Z,96.49
2023-01-25T01:53:31.267Z,96.29
2023-01-25T01:54:31.271Z,96.29
2023-01-25T01:55:31.255Z,96.21
2023-01-25T01:56:31.256Z,96.00
2023-01-25T01:57:31.257Z,95.95
2023-01-25T01:58:31.218Z,96.00
2023-01-25T01:59:31.241Z,96.00
2023-01-25T02:00:31.200Z,95.91
2023-01-25T02:01:31.254Z,95.79
2023-01-25T02:02:31.179Z,95.61
2023-01-25T02:03:31.173Z,95.71
2023-01-25T02:04:31.120Z,95.79
2023-01-25T02:05:31.125Z,96.03
2023-01-25T02:06:31.100Z,96.17
2023-01-25T02:07:31.912Z,96.18
2023-01-25T02:08:31.077Z,96.18
2023-01-25T02:09:31.086Z,96.06
2023-01-25T02:10:31.038Z,96.08
2023-01-25T02:11:31.058Z,96.09
2023-01-25T02:12:31.026Z,96.04
2023-01-25T02:13:31.022Z,96.01
2023-01-25T02:14:31.001Z,95.92
2023-01-25T02:15:30.988Z,95.89
2023-01-25T02:16:30.969Z,95.95
2023-01-25T02:17:30.957Z,95.90
2023-01-25T02:18:31.152Z,95.87
2023-01-25T02:19:30.934Z,95.61
2023-01-25T02:20:30.954Z,95.64
2023-01-25T02:21:30.922Z,95.66
2023-01-25T02:22:30.884Z,95.56
2023-01-25T02:23:30.921Z,95.56
2023-01-25T02:24:30.880Z,95.58
2023-01-25T02:25:30.861Z,95.64
2023-01-25T02:26:30.852Z,95.67
2023-01-25T02:27:30.808Z,95.82
2023-01-25T02:28:30.823Z,95.96
2023-01-25T02:29:30.792Z,96.04
2023-01-25T02:30:30.782Z,96.07
2023-01-25T02:31:30.819Z,95.99
2023-01-25T02:32:30.740Z,96.02
2023-01-25T02:33:30.750Z,96.08
2023-01-25T02:34:30.716Z,96.23
2023-01-25T02:35:30.697Z,96.27
2023-01-25T02:36:30.741Z,96.15
2023-01-25T02:37:30.699Z,96.13
2023-01-25T02:38:30.689Z,96.21
2023-01-25T02:39:30.694Z,96.19
2023-01-25T02:40:30.624Z,96.22
2023-01-25T02:41:30.619Z,96.21
2023-01-25T02:42:30.616Z,96.55
2023-01-25T02:43:30.613Z,96.72
2023-01-25T02:44:32.227Z,96.63
2023-01-25T02:45:30.604Z,96.72
2023-01-25T02:46:30.636Z,96.66
2023-01-25T02:47:30.592Z,96.63
2023-01-25T02:48:30.552Z,96.81
2023-01-25T02:49:30.557Z,96.98
2023-01-25T02:50:30.500Z,97.06
2023-01-25T02:51:30.521Z,97.05
2023-01-25T02:52:30.464Z,97.04
2023-01-25T02:53:30.504Z,96.90
2023-01-25T02:54:30.473Z,96.84
2023-01-25T02:55:30.459Z,96.76
2023-01-25T02:56:30.477Z,96.90
2023-01-25T02:57:30.416Z,97.10
2023-01-25T02:58:30.409Z,97.11
2023-01-25T02:59:30.407Z,97.17
2023-01-25T03:00:30.374Z,97.18
2023-01-25T03:01:30.420Z,97.02
2023-01-25T03:02:30.422Z,96.74
2023-01-25T03:03:30.325Z,96.90
2023-01-25T03:04:30.320Z,96.95
2023-01-25T03:05:30.344Z,96.87
2023-01-25T03:06:30.297Z,96.82
2023-01-25T03:07:30.326Z,96.83
2023-01-25T03:08:30.272Z,96.85
2023-01-25T03:09:30.337Z,97.09
2023-01-25T03:10:30.234Z,97.05
2023-01-25T03:11:30.219Z,97.07
2023-01-25T03:12:30.234Z,97.12
2023-01-25T03:13:30.200Z,97.18
2023-01-25T03:14:30.183Z,97.23
2023-01-25T03:15:30.166Z,97.27
2023-01-25T03:16:30.293Z,97.23
2023-01-25T03:17:30.164Z,97.26
2023-01-25T03:18:30.142Z,97.29
2023-01-25T03:19:30.125Z,97.44
2023-01-25T03:20:30.132Z,97.53
2023-01-25T03:21:30.108Z,97.53
2023-01-25T03:22:30.107Z,97.45
2023-01-25T03:23:30.062Z,97.60
2023-01-25T03:24:30.100Z,97.59
2023-01-25T03:25:30.048Z,97.33
2023-01-25T03:26:30.017Z,97.25
2023-01-25T03:27:30.029Z,97.45
2023-01-25T03:28:30.016Z,97.63
2023-01-25T03:29:29.983Z,97.65
2023-01-25T03:30:30.062Z,97.58
2023-01-25T03:31:30.086Z,97.48
2023-01-25T03:32:29.994Z,97.66
2023-01-25T03:33:29.925Z,97.95
2023-01-25T03:34:29.941Z,97.74
2023-01-25T03:35:29.918Z,97.75
2023-01-25T03:36:29.986Z,97.69
2023-01-25T03:37:29.890Z,97.59
2023-01-25T03:38:29.891Z,97.65
2023-01-25T03:39:29.870Z,97.68
2023-01-25T03:40:29.833Z,97.88
2023-01-25T03:41:29.833Z,97.92
2023-01-25T03:42:29.816Z,97.80
2023-01-25T03:43:29.797Z,97.95
2023-01-25T03:44:29.816Z,98.07
2023-01-25T03:45:29.798Z,97.96
2023-01-25T03:46:29.777Z,97.89
2023-01-25T03:47:29.784Z,98.05
2023-01-25T03:48:29.761Z,98.08
2023-01-25T03:49:29.710Z,98.03
2023-01-25T03:50:29.717Z,98.12
2023-01-25T03:51:29.707Z,98.19
2023-01-25T03:52:29.678Z,98.25
2023-01-25T03:53:29.704Z,98.22
2023-01-25T03:54:29.691Z,98.19
2023-01-25T03:55:29.636Z,98.22
2023-01-25T03:56:29.627Z,98.22
2023-01-25T03:57:29.634Z,98.17
2023-01-25T03:58:29.599Z,98.09
2023-01-25T03:59:29.598Z,98.00
2023-01-25T04:00:29.577Z,97.98
2023-01-25T04:01:29.571Z,98.09
2023-01-25T04:02:29.637Z,98.06
2023-01-25T04:03:31.076Z,98.08
2023-01-25T04:04:29.561Z,98.13
2023-01-25T04:05:29.518Z,98.18
2023-01-25T04:06:29.515Z,98.27
2023-01-25T04:07:29.474Z,98.45
2023-01-25T04:08:29.492Z,98.67
2023-01-25T04:09:29.463Z,98.76
2023-01-25T04:10:29.459Z,98.74
2023-01-25T04:11:29.442Z,98.69
2023-01-25T04:12:29.419Z,98.61
2023-01-25T04:13:29.415Z,98.47
2023-01-25T04:14:43.683Z,98.49
2023-01-25T04:15:29.388Z,98.54
2023-01-25T04:16:29.420Z,98.52
2023-01-25T04:17:29.356Z,98.52
2023-01-25T04:18:29.348Z,98.56
2023-01-25T04:19:29.336Z,98.70
2023-01-25T04:20:29.326Z,98.80
2023-01-25T04:21:29.289Z,98.90
2023-01-25T04:22:29.276Z,98.99
2023-01-25T04:23:29.281Z,98.99
2023-01-25T04:24:29.259Z,98.95
2023-01-25T04:25:29.247Z,99.00
2023-01-25T04:26:29.221Z,99.01
2023-01-25T04:27:29.210Z,99.01
2023-01-25T04:28:29.210Z,99.12
2023-01-25T04:29:40.524Z,99.12
2023-01-25T04:30:29.231Z,99.09
2023-01-25T04:31:29.247Z,99.06
2023-01-25T04:32:29.318Z,99.10
2023-01-25T04:33:29.123Z,99.07
2023-01-25T04:34:29.121Z,99.12
2023-01-25T04:35:29.101Z,99.19
2023-01-25T04:36:29.187Z,99.27
2023-01-25T04:37:29.099Z,99.26
2023-01-25T04:38:29.075Z,99.38
2023-01-25T04:39:29.071Z,99.37
2023-01-25T04:40:29.039Z,99.36
2023-01-25T04:41:29.054Z,99.42
2023-01-25T04:42:29.021Z,99.48
2023-01-25T04:43:29.060Z,99.36
2023-01-25T04:44:29.020Z,99.33
2023-01-25T04:45:29.138Z,99.29
2023-01-25T04:46:28.963Z,99.31
2023-01-25T04:47:28.975Z,99.41
2023-01-25T04:48:28.969Z,99.53
2023-01-25T04:49:28.916Z,99.57
2023-01-25T04:50:28.895Z,99.64
2023-01-25T04:51:28.921Z,99.77
2023-01-25T04:52:28.871Z,99.84
2023-01-25T04:53:28.883Z,99.93
2023-01-25T04:54:28.839Z,99.96
2023-01-25T04:55:28.866Z,99.98
2023-01-25T04:56:28.834Z,100.00
2023-01-25T04:57:28.824Z,100.00
2023-01-25T04:58:28.802Z,100.00
2023-01-25T04:59:28.785Z,100.00
2023-01-25T05:00:28.766Z,100.00
2023-01-25T05:01:28.839Z,100.00
2023-01-25T05:02:28.775Z,100.00
2023-01-25T05:03:28.732Z,100.00
2023-01-25T05:04:28.737Z,100.00
2023-01-25T05:05:28.744Z,99.96
2023-01-25T05:06:28.697Z,99.98
2023-01-25T05:07:28.726Z,100.00
2023-01-25T05:08:28.696Z,100.00
2023-01-25T05:09:28.681Z,100.00
2023-01-25T05:10:28.657Z,100.00
2023-01-25T05:11:28.635Z,100.00
2023-01-25T05:12:28.626Z,100.00
2023-01-25T05:13:28.619Z,100.00
2023-01-25T05:14:28.594Z,100.00
2023-01-25T05:15:28.600Z,100.00
2023-01-25T05:16:28.580Z,100.00
2023-01-25T05:17:28.555Z,100.00
2023-01-25T05:18:35.767Z,100.00
2023-01-25T05:19:28.528Z,100.00
2023-01-25T05:20:28.551Z,100.00
2023-01-25T05:21:28.504Z,100.00
2023-01-25T05:22:28.595Z,100.00
2023-01-25T05:23:28.534Z,100.00
2023-01-25T05:24:28.539Z,100.00
2023-01-25T05:25:28.462Z,100.00
2023-01-25T05:26:28.510Z,100.00
2023-01-25T05:27:28.448Z,100.00
2023-01-25T05:28:28.500Z,100.00
2023-01-25T05:29:28.542Z,100.00
2023-01-25T05:30:28.503Z,100.00
2023-01-25T05:31:28.751Z,100.00
2023-01-25T05:32:28.484Z,100.00
2023-01-25T05:33:29.206Z,100.00
2023-01-25T05:34:28.427Z,100.00
2023-01-25T05:35:28.430Z,100.00
2023-01-25T05:36:28.406Z,100.00
2023-01-25T05:37:28.377Z,100.00
2023-01-25T05:38:28.364Z,100.00
2023-01-25T05:39:28.386Z,100.00
2023-01-25T05:40:28.276Z,100.00
2023-01-25T05:41:28.322Z,100.00
2023-01-25T05:42:28.311Z,100.00
2023-01-25T05:43:28.282Z,100.00
2023-01-25T05:44:28.287Z,100.00
2023-01-25T05:45:28.169Z,100.00
2023-01-25T05:46:28.243Z,100.00
2023-01-25T05:47:28.147Z,100.00
2023-01-25T05:48:28.142Z,100.00
2023-01-25T05:49:28.283Z,100.00
2023-01-25T05:50:28.123Z,100.00
2023-01-25T05:51:28.166Z,100.00
2023-01-25T05:52:28.094Z,100.00
2023-01-25T05:53:28.080Z,100.00
2023-01-25T05:54:28.059Z,100.00
2023-01-25T05:55:28.069Z,100.00
2023-01-25T05:56:28.038Z,100.00
2023-01-25T05:57:28.059Z,100.00
2023-01-25T05:58:27.989Z,100.00
2023-01-25T05:59:27.994Z,100.00
2023-01-25T06:00:27.992Z,100.00
2023-01-25T06:01:27.955Z,100.00
2023-01-25T06:02:28.080Z,100.00
2023-01-25T06:03:28.103Z,100.00
2023-01-25T06:04:27.948Z,100.00
2023-01-25T06:05:27.904Z,100.00
2023-01-25T06:06:27.953Z,100.00
2023-01-25T06:07:27.909Z,100.00
2023-01-25T06:08:27.873Z,100.00
2023-01-25T06:09:27.849Z,100.00
2023-01-25T06:10:27.969Z,100.00
2023-01-25T06:11:27.824Z,100.00
2023-01-25T06:12:29.494Z,100.00
2023-01-25T06:13:27.850Z,100.00
2023-01-25T06:14:27.800Z,100.00
2023-01-25T06:15:27.788Z,100.00
2023-01-25T06:16:27.782Z,100.00
2023-01-25T06:17:27.766Z,100.00
2023-01-25T06:18:29.019Z,100.00
2023-01-25T06:19:27.734Z,100.00
2023-01-25T06:20:27.743Z,100.00
2023-01-25T06:21:27.697Z,100.00
2023-01-25T06:22:27.696Z,100.00
2023-01-25T06:23:27.661Z,100.00
2023-01-25T06:24:27.767Z,100.00
2023-01-25T06:25:27.642Z,100.00
2023-01-25T06:26:27.661Z,100.00
2023-01-25T06:27:27.631Z,100.00
2023-01-25T06:28:27.607Z,100.00
2023-01-25T06:29:27.613Z,100.00
2023-01-25T06:30:27.606Z,100.00
2023-01-25T06:31:27.825Z,100.00
2023-01-25T06:32:27.563Z,100.00
2023-01-25T06:33:27.560Z,100.00
2023-01-25T06:34:27.584Z,100.00
2023-01-25T06:35:27.565Z,100.00
2023-01-25T06:36:27.513Z,100.00
2023-01-25T06:37:27.476Z,100.00
2023-01-25T06:38:27.490Z,100.00
2023-01-25T06:39:27.509Z,100.00
2023-01-25T06:40:27.466Z,100.00
2023-01-25T06:41:27.463Z,100.00
2023-01-25T06:42:27.423Z,100.00
2023-01-25T06:43:27.411Z,100.00
2023-01-25T06:44:27.444Z,100.00
2023-01-25T06:45:27.427Z,100.00
2023-01-25T06:46:27.454Z,100.00
2023-01-25T06:47:27.357Z,100.00
2023-01-25T06:48:27.337Z,100.00
2023-01-25T06:49:27.348Z,100.00
2023-01-25T06:50:27.377Z,100.00
2023-01-25T06:51:27.327Z,100.00
2023-01-25T06:52:27.292Z,100.00
2023-01-25T06:53:27.284Z,100.00
2023-01-25T06:54:27.262Z,100.00
2023-01-25T06:55:27.265Z,100.00
2023-01-25T06:56:27.269Z,100.00
2023-01-25T06:57:27.234Z,100.00
2023-01-25T06:58:27.260Z,100.00
2023-01-25T06:59:27.198Z,100.00
2023-01-25T07:00:27.195Z,100.00
2023-01-25T07:01:27.491Z,100.00
2023-01-25T07:02:27.225Z,100.00
2023-01-25T07:03:27.146Z,100.00
2023-01-25T07:04:27.150Z,100.00
2023-01-25T07:05:27.130Z,100.00
2023-01-25T07:06:27.117Z,100.00
2023-01-25T07:07:27.083Z,100.00
2023-01-25T07:08:27.078Z,100.00
2023-01-25T07:09:27.054Z,100.00
2023-01-25T07:10:27.054Z,100.00
2023-01-25T07:11:27.052Z,100.00
2023-01-25T07:12:27.037Z,100.00
2023-01-25T07:13:27.025Z,100.00
2023-01-25T07:14:27.018Z,100.00
2023-01-25T07:15:26.995Z,100.00
2023-01-25T07:16:27.043Z,100.00
2023-01-25T07:17:26.981Z,100.00
2023-01-25T07:18:27.006Z,100.00
2023-01-25T07:19:26.996Z,100.00
2023-01-25T07:20:26.955Z,100.00
2023-01-25T07:21:27.012Z,100.00
2023-01-25T07:22:26.929Z,100.00
2023-01-25T07:23:26.891Z,100.00
2023-01-25T07:24:26.949Z,100.00
2023-01-25T07:25:26.866Z,100.00
2023-01-25T07:26:26.871Z,100.00
2023-01-25T07:27:26.861Z,100.00
2023-01-25T07:28:26.845Z,100.00
2023-01-25T07:29:26.793Z,100.00
2023-01-25T07:30:26.795Z,100.00
2023-01-25T07:31:26.896Z,100.00
2023-01-25T07:32:26.755Z,100.00
2023-01-25T07:33:26.755Z,100.00
2023-01-25T07:34:26.788Z,100.00
2023-01-25T07:35:26.705Z,100.00
2023-01-25T07:36:26.718Z,100.00
2023-01-25T07:37:26.678Z,100.00
2023-01-25T07:38:26.673Z,100.00
2023-01-25T07:39:26.693Z,100.00
2023-01-25T07:40:26.663Z,100.00
2023-01-25T07:41:26.643Z,100.00
2023-01-25T07:42:26.630Z,100.00
2023-01-25T07:43:26.620Z,100.00
2023-01-25T07:44:26.600Z,100.00
2023-01-25T07:45:26.585Z,100.00
2023-01-25T07:46:26.588Z,100.00
2023-01-25T07:47:26.566Z,100.00
2023-01-25T07:48:26.599Z,100.00
2023-01-25T07:49:26.549Z,100.00
2023-01-25T07:50:26.525Z,100.00
2023-01-25T07:51:26.531Z,100.00
2023-01-25T07:52:26.503Z,100.00
2023-01-25T07:53:26.489Z,100.00
2023-01-25T07:54:26.480Z,100.00
2023-01-25T07:55:26.475Z,100.00
2023-01-25T07:56:26.470Z,100.00
2023-01-25T07:57:26.433Z,100.00
2023-01-25T07:58:26.508Z,100.00
2023-01-25T07:59:26.401Z,100.00
2023-01-25T08:00:26.549Z,100.00
2023-01-25T08:01:26.371Z,100.00
2023-01-25T08:02:26.379Z,100.00
2023-01-25T08:03:26.394Z,100.00
2023-01-25T08:04:26.448Z,100.00
2023-01-25T08:05:26.345Z,100.00
2023-01-25T08:06:26.309Z,100.00
2023-01-25T08:07:26.289Z,100.00
2023-01-25T08:08:26.292Z,100.00
2023-01-25T08:09:26.259Z,100.00
2023-01-25T08:10:26.259Z,100.00
2023-01-25T08:11:26.257Z,100.00
2023-01-25T08:12:26.216Z,100.00
2023-01-25T08:13:26.208Z,100.00
2023-01-25T08:14:26.216Z,100.00
2023-01-25T08:15:26.173Z,100.00
2023-01-25T08:16:26.195Z,100.00
2023-01-25T08:17:26.192Z,100.00
2023-01-25T08:18:26.165Z,100.00
2023-01-25T08:19:26.922Z,100.00
2023-01-25T08:20:26.125Z,100.00
2023-01-25T08:21:26.095Z,100.00
2023-01-25T08:22:26.121Z,100.00
2023-01-25T08:23:26.095Z,100.00
2023-01-25T08:24:26.091Z,100.00
2023-01-25T08:25:26.043Z,100.00
2023-01-25T08:26:26.069Z,100.00
2023-01-25T08:27:26.698Z,100.00
2023-01-25T08:28:26.025Z,100.00
2023-01-25T08:29:25.983Z,100.00
2023-01-25T08:30:25.984Z,100.00
2023-01-25T08:31:26.035Z,100.00
2023-01-25T08:32:25.952Z,100.00
2023-01-25T08:33:25.971Z,100.00
2023-01-25T08:34:25.928Z,100.00
2023-01-25T08:35:25.911Z,100.00
2023-01-25T08:36:25.944Z,100.00
2023-01-25T08:37:25.910Z,100.00
2023-01-25T08:38:25.892Z,100.00
2023-01-25T08:39:25.867Z,100.00
2023-01-25T08:40:25.857Z,100.00
2023-01-25T08:41:25.832Z,100.00
2023-01-25T08:42:25.828Z,100.00
2023-01-25T08:43:25.801Z,100.00
2023-01-25T08:44:25.806Z,100.00
2023-01-25T08:45:25.811Z,100.00
2023-01-25T08:46:25.805Z,100.00
2023-01-25T08:47:25.766Z,100.00
2023-01-25T08:48:25.778Z,100.00
2023-01-25T08:49:25.739Z,100.00
2023-01-25T08:50:25.723Z,100.00
2023-01-25T08:51:25.706Z,100.00
2023-01-25T08:52:25.703Z,100.00
2023-01-25T08:53:25.663Z,100.00
2023-01-25T08:54:25.671Z,100.00
2023-01-25T08:55:25.665Z,100.00
2023-01-25T08:56:25.665Z,100.00
2023-01-25T08:57:25.633Z,100.00
2023-01-25T08:58:25.621Z,100.00
2023-01-25T08:59:25.596Z,100.00
2023-01-25T09:00:25.592Z,100.00
2023-01-25T09:01:25.583Z,100.00
2023-01-25T09:02:25.567Z,100.00
2023-01-25T09:03:25.640Z,100.00
2023-01-25T09:04:25.548Z,100.00
2023-01-25T09:05:25.520Z,100.00
2023-01-25T09:06:25.666Z,100.00
2023-01-25T09:07:25.494Z,100.00
2023-01-25T09:08:25.489Z,100.00
2023-01-25T09:09:25.465Z,100.00
2023-01-25T09:10:25.657Z,100.00
2023-01-25T09:11:25.453Z,100.00
2023-01-25T09:12:25.423Z,100.00
2023-01-25T09:13:25.451Z,100.00
2023-01-25T09:14:25.405Z,100.00
2023-01-25T09:15:25.376Z,100.00
2023-01-25T09:16:25.388Z,100.00
2023-01-25T09:17:25.348Z,100.00
2023-01-25T09:18:25.351Z,100.00
2023-01-25T09:19:25.340Z,100.00
2023-01-25T09:20:26.132Z,100.00
2023-01-25T09:21:25.318Z,100.00
2023-01-25T09:22:25.284Z,100.00
2023-01-25T09:23:25.334Z,100.00
2023-01-25T09:24:25.303Z,100.00
2023-01-25T09:25:25.251Z,100.00
2023-01-25T09:26:25.245Z,100.00
2023-01-25T09:27:25.231Z,100.00
2023-01-25T09:28:25.223Z,100.00
2023-01-25T09:29:25.225Z,100.00
2023-01-25T09:30:37.222Z,100.00
2023-01-25T09:31:25.702Z,100.00
2023-01-25T09:32:25.280Z,100.00
2023-01-25T09:33:25.142Z,100.00
2023-01-25T09:34:25.119Z,100.00
2023-01-25T09:35:25.126Z,100.00
2023-01-25T09:36:25.158Z,100.00
2023-01-25T09:37:25.100Z,100.00
2023-01-25T09:38:25.085Z,100.00
2023-01-25T09:39:25.081Z,100.00
2023-01-25T09:40:25.114Z,100.00
2023-01-25T09:41:25.115Z,100.00
2023-01-25T09:42:25.118Z,100.00
2023-01-25T09:43:25.064Z,100.00
2023-01-25T09:44:25.059Z,100.00
2023-01-25T09:45:25.081Z,100.00
2023-01-25T09:46:25.077Z,100.00
2023-01-25T09:47:25.002Z,100.00
2023-01-25T09:48:25.096Z,100.00
2023-01-25T09:49:25.052Z,100.00
2023-01-25T09:50:25.027Z,100.00
2023-01-25T09:51:25.057Z,100.00
2023-01-25T09:52:24.985Z,100.00
2023-01-25T09:53:24.983Z,100.00
2023-01-25T09:54:24.884Z,100.00
2023-01-25T09:55:24.965Z,100.00
2023-01-25T09:56:24.876Z,100.00
2023-01-25T09:57:24.824Z,100.00
2023-01-25T09:58:24.832Z,100.00
2023-01-25T09:59:24.809Z,100.00
2023-01-25T10:00:24.781Z,100.00
2023-01-25T10:01:36.974Z,100.00
2023-01-25T10:02:24.862Z,100.00
2023-01-25T10:03:24.765Z,100.00
2023-01-25T10:04:24.769Z,100.00
2023-01-25T10:05:24.727Z,100.00
2023-01-25T10:06:24.703Z,100.00
2023-01-25T10:07:24.678Z,100.00
2023-01-25T10:08:24.677Z,100.00
2023-01-25T10:09:24.670Z,100.00
2023-01-25T10:10:24.686Z,100.00
2023-01-25T10:11:24.656Z,100.00
2023-01-25T10:12:24.645Z,100.00
2023-01-25T10:13:24.611Z,100.00
2023-01-25T10:14:24.667Z,100.00
2023-01-25T10:15:24.613Z,100.00
2023-01-25T10:16:26.264Z,100.00
2023-01-25T10:17:24.557Z,100.00
2023-01-25T10:18:24.545Z,100.00
2023-01-25T10:19:24.550Z,100.00
2023-01-25T10:20:24.543Z,100.00
2023-01-25T10:21:24.497Z,100.00
2023-01-25T10:22:24.493Z,100.00
2023-01-25T10:23:24.473Z,100.00
2023-01-25T10:24:24.469Z,100.00
2023-01-25T10:25:24.469Z,100.00
2023-01-25T10:26:24.466Z,100.00
2023-01-25T10:27:24.437Z,100.00
2023-01-25T10:28:24.422Z,100.00
2023-01-25T10:29:24.413Z,100.00
2023-01-25T10:30:24.378Z,100.00
2023-01-25T10:31:24.540Z,100.00
2023-01-25T10:32:24.350Z,100.00
2023-01-25T10:33:24.504Z,100.00
2023-01-25T10:34:24.318Z,100.00
2023-01-25T10:35:34.849Z,100.00
2023-01-25T10:36:24.309Z,100.00
2023-01-25T10:37:24.306Z,100.00
2023-01-25T10:38:24.275Z,100.00
2023-01-25T10:39:24.261Z,100.00
2023-01-25T10:40:24.260Z,100.00
2023-01-25T10:41:24.261Z,100.00
2023-01-25T10:42:24.225Z,100.00
2023-01-25T10:43:24.224Z,100.00
2023-01-25T10:44:24.208Z,100.00
2023-01-25T10:45:24.200Z,100.00
2023-01-25T10:46:24.221Z,100.00
2023-01-25T10:47:24.179Z,100.00
2023-01-25T10:48:24.137Z,100.00
2023-01-25T10:49:24.134Z,100.00
2023-01-25T10:50:24.130Z,100.00
2023-01-25T10:51:24.114Z,100.00
2023-01-25T10:52:24.250Z,100.00
2023-01-25T10:53:24.070Z,100.00
2023-01-25T10:54:24.055Z,100.00
2023-01-25T10:55:24.062Z,100.00
2023-01-25T10:56:24.106Z,100.00
2023-01-25T10:57:24.049Z,100.00
2023-01-25T10:58:24.012Z,100.00
2023-01-25T10:59:24.004Z,100.00
2023-01-25T11:00:23.987Z,100.00
2023-01-25T11:01:24.009Z,100.00
2023-01-25T11:02:23.965Z,100.00
2023-01-25T11:03:23.953Z,100.00
2023-01-25T11:04:23.932Z,100.00
2023-01-25T11:05:23.932Z,100.00
2023-01-25T11:06:23.896Z,100.00
2023-01-25T11:07:23.896Z,100.00
2023-01-25T11:08:23.989Z,100.00
2023-01-25T11:09:23.899Z,100.00
2023-01-25T11:10:23.854Z,100.00
2023-01-25T11:11:23.843Z,100.00
2023-01-25T11:12:23.821Z,100.00
2023-01-25T11:13:23.820Z,100.00
2023-01-25T11:14:23.791Z,100.00
2023-01-25T11:15:23.789Z,100.00
2023-01-25T11:16:23.846Z,100.00
2023-01-25T11:17:23.751Z,100.00
2023-01-25T11:18:23.755Z,100.00
2023-01-25T11:19:23.751Z,100.00
2023-01-25T11:20:23.735Z,100.00
2023-01-25T11:21:23.714Z,100.00
2023-01-25T11:22:23.691Z,100.00
2023-01-25T11:23:23.670Z,100.00
2023-01-25T11:24:23.724Z,100.00
2023-01-25T11:25:23.647Z,100.00
2023-01-25T11:26:23.637Z,100.00
2023-01-25T11:27:23.633Z,100.00
2023-01-25T11:28:23.594Z,100.00
2023-01-25T11:29:25.472Z,100.00
2023-01-25T11:30:23.593Z,100.00
2023-01-25T11:31:23.673Z,100.00
2023-01-25T11:32:23.591Z,100.00
2023-01-25T11:33:23.535Z,100.00
2023-01-25T11:34:23.524Z,100.00
2023-01-25T11:35:23.559Z,100.00
2023-01-25T11:36:23.532Z,100.00
2023-01-25T11:37:23.500Z,100.00
2023-01-25T11:38:23.484Z,100.00
2023-01-25T11:39:23.470Z,100.00
2023-01-25T11:40:23.463Z,100.00
2023-01-25T11:41:23.463Z,100.00
2023-01-25T11:42:23.424Z,100.00
2023-01-25T11:43:23.399Z,100.00
2023-01-25T11:44:23.399Z,100.00
2023-01-25T11:45:23.391Z,100.00
2023-01-25T11:46:23.388Z,100.00
2023-01-25T11:47:23.432Z,100.00
2023-01-25T11:48:23.392Z,100.00
2023-01-25T11:49:23.338Z,100.00
2023-01-25T11:50:23.345Z,100.00
2023-01-25T11:51:23.334Z,100.00
2023-01-25T11:52:23.329Z,100.00
2023-01-25T11:53:23.316Z,100.00
2023-01-25T11:54:23.293Z,100.00
2023-01-25T11:55:23.312Z,100.00
2023-01-25T11:56:23.276Z,100.00
2023-01-25T11:57:23.258Z,100.00
2023-01-25T11:58:23.260Z,100.00
2023-01-25T11:59:23.244Z,100.00
2023-01-25T12:00:23.261Z,100.00
2023-01-25T12:01:23.202Z,100.00
2023-01-25T12:02:23.228Z,100.00
2023-01-25T12:03:23.148Z,100.00
2023-01-25T12:04:23.168Z,100.00
2023-01-25T12:05:23.144Z,100.00
2023-01-25T12:06:23.129Z,100.00
2023-01-25T12:07:23.112Z,100.00
2023-01-25T12:08:23.079Z,100.00
2023-01-25T12:09:23.083Z,100.00
2023-01-25T12:10:23.056Z,100.00
2023-01-25T12:11:23.061Z,100.00
2023-01-25T12:12:23.052Z,100.00
2023-01-25T12:13:23.015Z,100.00
2023-01-25T12:14:22.992Z,100.00
2023-01-25T12:15:23.001Z,100.00
2023-01-25T12:16:23.007Z,100.00
2023-01-25T12:17:22.951Z,100.00
2023-01-25T12:18:22.952Z,100.00
2023-01-25T12:19:22.935Z,100.00
2023-01-25T12:20:22.935Z,100.00
2023-01-25T12:21:30.868Z,100.00
2023-01-25T12:22:22.907Z,100.00
2023-01-25T12:23:22.880Z,100.00
2023-01-25T12:24:22.925Z,100.00
2023-01-25T12:25:22.870Z,100.00
2023-01-25T12:26:22.850Z,100.00
2023-01-25T12:27:24.569Z,100.00
2023-01-25T12:28:22.807Z,100.00
2023-01-25T12:29:22.814Z,100.00
2023-01-25T12:30:22.804Z,100.00
2023-01-25T12:31:22.926Z,100.00
2023-01-25T12:32:22.804Z,100.00
2023-01-25T12:33:22.750Z,100.00
2023-01-25T12:34:22.750Z,100.00
2023-01-25T12:35:22.752Z,100.00
2023-01-25T12:36:22.719Z,100.00
2023-01-25T12:37:22.709Z,100.00